Time;durP1;ratioP1;P1;durP2;ratioP2;P2;SDS_P1;SDS_P2;PMS_P1;PMS_P2;Temp;Humidity;BMP_temperature;BMP_pressure;BME280_temperature;BME280_humidity;BME280_pressure;Samples;Min_cycle;Max_cycle;Signal;HPM_P1;HPM_P2
2022/08/07 00:03:08;;;;;;;1.80;0.40;;;;;;;22.73;38.27;102588.97;16135264;19;130257;-57
2022/08/07 00:08:31;;;;;;;3.17;0.47;;;;;;;22.71;38.52;102585.53;16136882;19;129163;-55
2022/08/07 00:13:53;;;;;;;1.48;0.50;;;;;;;22.69;38.67;102576.56;16127564;19;129546;-53
2022/08/07 00:19:15;;;;;;;1.00;0.40;;;;;;;22.69;38.97;102565.38;16136802;19;129379;-55
2022/08/07 00:24:42;;;;;;;1.42;0.50;;;;;;;22.69;38.40;102568.19;16148352;19;128968;-56
2022/08/07 00:30:05;;;;;;;2.92;0.50;;;;;;;22.69;38.44;102562.59;16148806;19;128867;-57
2022/08/07 00:35:47;;;;;;;0.50;0.40;;;;;;;22.68;38.52;102566.47;16150059;19;130134;-56
2022/08/07 00:41:10;;;;;;;0.73;0.35;;;;;;;22.67;38.77;102559.19;16148618;19;129255;-57
2022/08/07 00:46:35;;;;;;;;;;;;;;;22.65;39.20;102560.53;16146843;19;129183;-56
2022/08/07 00:51:57;;;;;;;1.13;0.55;;;;;;;22.66;38.92;102554.69;16144840;19;130236;-56
2022/08/07 00:57:21;;;;;;;0.85;0.40;;;;;;;22.65;38.94;102550.19;16145535;19;129475;-57
2022/08/07 01:02:44;;;;;;;1.13;0.40;;;;;;;22.64;39.14;102554.09;16147909;19;129928;-56
2022/08/07 01:08:06;;;;;;;1.80;0.30;;;;;;;22.64;39.26;102545.72;16144367;19;130164;-56
2022/08/07 01:13:29;;;;;;;0.85;0.30;;;;;;;22.63;39.20;102549.59;16145332;19;129350;-55
2022/08/07 01:18:55;;;;;;;0.90;0.40;;;;;;;22.62;39.26;102539.53;16146503;19;129248;-55
2022/08/07 01:24:19;;;;;;;1.45;0.30;;;;;;;22.62;39.20;102541.44;16145396;19;129525;-55
2022/08/07 01:29:42;;;;;;;1.13;0.40;;;;;;;22.60;39.20;102536.13;16143585;19;130215;-57
2022/08/07 01:35:05;;;;;;;0.77;0.47;;;;;;;22.60;39.34;102524.97;16144276;19;130291;-54
2022/08/07 01:40:29;;;;;;;;;;;;;;;22.57;39.32;102525.44;16146061;19;132048;-57
2022/08/07 01:45:52;;;;;;;0.43;0.30;;;;;;;22.59;39.21;102523.25;16143427;19;129482;-56
2022/08/07 01:51:21;;;;;;;0.65;0.20;;;;;;;22.60;39.65;102511.03;16145012;19;129235;-57
2022/08/07 01:57:33;;;;;;;3.42;0.40;;;;;;;22.57;39.71;102523.50;16144566;19;130017;-55
2022/08/07 02:03:17;;;;;;;0.85;0.47;;;;;;;22.56;39.80;102527.38;16144172;19;132178;-53
2022/08/07 02:09:02;;;;;;;1.10;0.50;;;;;;;22.55;39.77;102519.22;16144863;19;129551;-54
2022/08/07 02:14:27;;;;;;;0.90;0.30;;;;;;;22.55;39.49;102511.72;16140819;19;129641;-58
2022/08/07 02:20:01;;;;;;;0.33;0.30;;;;;;;22.54;39.80;102503.56;16136338;19;129530;-57
2022/08/07 02:25:34;;;;;;;0.65;0.40;;;;;;;22.53;39.40;102499.94;16139333;19;129156;-57
2022/08/07 02:31:18;;;;;;;0.57;0.40;;;;;;;22.52;39.65;102508.56;16139243;19;129696;-57
2022/08/07 02:36:50;;;;;;;0.90;0.40;;;;;;;22.53;39.71;102499.06;16139023;19;130185;-56
2022/08/07 02:42:13;;;;;;;1.33;0.50;;;;;;;22.50;39.72;102500.41;16140367;19;129337;-57
2022/08/07 02:47:37;;;;;;;0.53;0.43;;;;;;;22.50;39.77;102496.78;16136138;19;129671;-57
2022/08/07 02:53:11;;;;;;;1.05;0.43;;;;;;;22.50;39.61;102491.22;16135343;19;128973;-57
2022/08/07 02:58:35;;;;;;;0.73;0.30;;;;;;;22.49;39.90;102483.91;16138008;19;129161;-57
2022/08/07 03:04:00;;;;;;;0.63;0.40;;;;;;;22.48;40.06;102493.38;16139868;19;130257;-57
2022/08/07 03:09:28;;;;;;;0.80;0.35;;;;;;;22.48;40.03;102482.22;16137797;19;129646;-57
2022/08/07 03:15:07;;;;;;;0.50;0.50;;;;;;;22.48;39.84;102485.84;16138987;19;129156;-58
2022/08/07 03:20:33;;;;;;;0.50;0.30;;;;;;;22.47;39.99;102477.72;16137077;19;130111;-58
2022/08/07 03:25:58;;;;;;;0.38;0.38;;;;;;;22.48;39.83;102490.59;16135183;19;129141;-56
2022/08/07 03:31:22;;;;;;;2.38;0.40;;;;;;;22.47;39.96;102495.28;16136540;19;129233;-57
2022/08/07 03:37:03;;;;;;;0.30;0.30;;;;;;;22.46;40.17;102492.75;16137969;19;129921;-59
2022/08/07 03:42:35;;;;;;;0.28;0.20;;;;;;;22.47;40.00;102494.47;16136966;19;130286;-55
2022/08/07 03:47:58;;;;;;;0.45;0.22;;;;;;;22.46;40.38;102492.75;16131798;19;129449;-58
2022/08/07 03:53:20;;;;;;;0.40;0.30;;;;;;;22.47;40.16;102500.03;16135351;19;130300;-54
2022/08/07 03:59:04;;;;;;;0.95;0.30;;;;;;;22.44;40.32;102513.34;16146887;19;129919;-57
2022/08/07 04:04:34;;;;;;;1.17;0.35;;;;;;;22.43;40.18;102510.81;16150145;19;129074;-56
2022/08/07 04:09:56;;;;;;;0.45;0.32;;;;;;;22.44;40.27;102504.16;16150611;19;128922;-53
2022/08/07 04:15:22;;;;;;;0.47;0.40;;;;;;;22.40;40.15;102500.97;16150397;19;129500;-57
2022/08/07 04:20:45;;;;;;;0.30;0.30;;;;;;;22.40;40.47;102500.97;16150364;19;131717;-57
2022/08/07 04:26:15;;;;;;;1.15;0.55;;;;;;;22.39;39.98;102496.50;16147407;19;130108;-57
2022/08/07 04:31:42;;;;;;;0.60;0.50;;;;;;;22.39;40.27;102501.19;16147892;19;129081;-58
2022/08/07 04:37:24;;;;;;;0.50;0.40;;;;;;;22.38;40.24;102505.06;16147462;19;129340;-56
2022/08/07 04:42:49;;;;;;;0.57;0.40;;;;;;;22.35;39.96;102514.75;16147189;19;129995;-57
2022/08/07 04:48:36;;;;;;;0.80;0.70;;;;;;;22.35;39.88;102509.19;16144027;19;129457;-57
2022/08/07 04:54:27;;;;;;;1.63;0.63;;;;;;;22.32;40.19;102515.22;16143228;19;129909;-56
2022/08/07 05:00:06;;;;;;;0.65;0.65;;;;;;;22.32;40.23;102519.97;16148113;19;129535;-57
2022/08/07 05:05:46;;;;;;;0.75;0.63;;;;;;;22.28;40.09;102519.56;16146638;19;130876;-55
2022/08/07 05:11:45;;;;;;;1.63;0.90;;;;;;;22.28;40.18;102519.56;16146300;19;129384;-56
2022/08/07 05:17:22;;;;;;;0.75;0.50;;;;;;;22.28;39.73;102525.13;16145345;19;129289;-55
2022/08/07 05:23:10;;;;;;;4.75;0.75;;;;;;;22.31;40.17;102529.41;16143422;19;129850;-57
2022/08/07 05:28:37;;;;;;;20.75;1.05;;;;;;;22.37;39.98;102534.91;16139376;19;128970;-56
2022/08/07 05:34:01;;;;;;;8.23;1.33;;;;;;;22.39;39.75;102532.75;16144400;19;129607;-56
2022/08/07 05:39:31;;;;;;;11.90;1.00;;;;;;;22.44;39.66;102526.47;16143345;19;129372;-52
2022/08/07 05:45:14;;;;;;;20.52;1.52;;;;;;;22.49;39.56;102531.34;16141653;19;129685;-55
2022/08/07 05:50:59;;;;;;;14.82;1.35;;;;;;;22.53;39.93;102533.41;16140726;19;130857;-54
2022/08/07 05:56:23;;;;;;;24.48;1.60;;;;;;;22.57;39.83;102544.94;16141182;19;129940;-58
2022/08/07 06:01:52;;;;;;;36.72;2.10;;;;;;;22.58;39.85;102538.28;16141502;19;129555;-57
2022/08/07 06:07:16;;;;;;;;;;;;;;;22.52;39.71;102539.25;16140534;19;129561;-57
2022/08/07 06:13:00;;;;;;;14.98;1.90;;;;;;;22.59;39.29;102542.78;16141584;19;131260;-55
2022/08/07 06:18:23;;;;;;;9.03;1.77;;;;;;;22.58;39.62;102541.06;16131766;19;131372;-56
2022/08/07 06:23:48;;;;;;;7.40;1.48;;;;;;;22.61;39.34;102539.75;16140158;19;129271;-52
2022/08/07 06:29:30;;;;;;;6.50;1.13;;;;;;;22.63;38.96;102544.03;16135121;19;129490;-54
2022/08/07 06:34:52;;;;;;;6.03;1.15;;;;;;;22.65;39.15;102536.25;16137232;19;129629;-50
2022/08/07 06:40:14;;;;;;;23.27;1.90;;;;;;;22.70;39.22;102533.63;16136694;19;129013;-56
2022/08/07 06:45:41;;;;;;;40.78;2.38;;;;;;;22.76;39.38;102525.41;16136570;19;128983;-54
2022/08/07 06:51:07;;;;;;;27.63;2.08;;;;;;;22.81;39.31;102533.91;16139036;19;128919;-56
2022/08/07 06:56:49;;;;;;;20.27;2.13;;;;;;;22.82;39.23;102518.88;16138157;19;130188;-57
2022/08/07 07:02:17;;;;;;;16.63;1.83;;;;;;;22.83;38.90;102531.72;16138632;19;129146;-54
2022/08/07 07:07:59;;;;;;;18.30;2.20;;;;;;;22.81;39.17;102534.78;16135319;19;130203;-55
2022/08/07 07:13:36;;;;;;;19.40;2.22;;;;;;;22.84;39.41;102525.91;16135743;19;129198;-55
2022/08/07 07:19:34;;;;;;;18.98;1.80;;;;;;;22.88;38.98;102526.31;16136936;19;129567;-52
2022/08/07 07:25:17;;;;;;;16.40;2.20;;;;;;;22.89;38.58;102519.66;16135478;19;131185;-55
2022/08/07 07:31:04;;;;;;;29.42;3.03;;;;;;;22.93;39.28;102525.63;16128256;19;129740;-51
2022/08/07 07:36:28;;;;;;;31.13;2.40;;;;;;;22.92;39.07;102524.75;16137393;19;129666;-54
2022/08/07 07:41:55;;;;;;;15.98;2.53;;;;;;;22.93;38.86;102526.47;16132728;19;130578;-51
2022/08/07 07:47:38;;;;;;;19.27;2.20;;;;;;;22.94;38.91;102522.59;16134545;19;129741;-51
2022/08/07 07:53:14;;;;;;;24.35;2.80;;;;;;;22.93;38.45;102515.31;16132610;19;129740;-51
2022/08/07 07:58:47;;;;;;;11.15;1.80;;;;;;;22.98;38.39;102509.88;16135547;19;129719;-50
2022/08/07 08:04:12;;;;;;;25.23;2.80;;;;;;;23.01;38.67;102511.31;16133196;19;130179;-54
2022/08/07 08:09:37;;;;;;;20.30;2.35;;;;;;;23.01;38.59;102512.19;16128900;19;129541;-52
2022/08/07 08:15:19;;;;;;;21.58;2.13;;;;;;;23.04;38.92;102497.72;16135120;19;129457;-53
2022/08/07 08:20:45;;;;;;;7.93;1.90;;;;;;;23.08;38.56;102505.63;16133226;19;129159;-50
2022/08/07 08:31:55;;;;;;;14.65;2.75;;;;;;;23.09;39.08;102497.00;16127071;19;131141;-50
2022/08/07 08:37:37;;;;;;;29.27;3.17;;;;;;;23.11;38.76;102505.16;16134544;19;129521;-51
2022/08/07 08:43:39;;;;;;;22.88;3.20;;;;;;;23.11;38.87;102506.00;16144196;19;131335;-47
2022/08/07 08:49:22;;;;;;;23.30;2.63;;;;;;;23.19;38.93;102510.41;16141883;19;129280;-50
2022/08/07 08:55:00;;;;;;;23.88;2.55;;;;;;;23.21;38.90;102499.84;16139853;19;129089;-49
2022/08/07 09:00:35;;;;;;;16.08;2.10;;;;;;;23.25;38.78;102495.50;16144909;19;129167;-49
2022/08/07 09:06:08;;;;;;;16.00;2.15;;;;;;;23.23;39.05;102506.03;16143111;19;129517;-48
2022/08/07 09:11:48;;;;;;;28.05;3.28;;;;;;;23.24;38.74;102504.97;16145187;19;129122;-52
2022/08/07 09:17:36;;;;;;;20.95;2.63;;;;;;;23.28;38.87;102497.78;16144374;19;129559;-55
2022/08/07 09:23:23;;;;;;;14.77;2.67;;;;;;;23.25;39.07;102501.09;16141783;19;129915;-53
2022/08/07 09:29:34;;;;;;;18.85;2.22;;;;;;;23.20;38.85;102492.56;16140832;19;129146;-51
2022/08/07 09:35:41;;;;;;;7.07;1.77;;;;;;;23.14;38.32;102487.94;16137436;19;130118;-54
2022/08/07 09:41:34;;;;;;;8.40;2.03;;;;;;;23.10;38.42;102473.59;16143348;19;130277;-55
2022/08/07 09:47:18;;;;;;;11.65;1.95;;;;;;;23.09;38.16;102479.44;16141567;19;129330;-54
2022/08/07 09:53:03;;;;;;;6.80;1.57;;;;;;;23.05;37.84;102468.75;16138106;19;129532;-55
2022/08/07 09:58:49;;;;;;;;;;;;;;;23.01;38.17;102464.75;16138226;19;129183;-55
2022/08/07 10:04:32;;;;;;;9.40;1.70;;;;;;;23.03;37.65;102464.50;16138463;19;129951;-56
2022/08/07 10:10:22;;;;;;;4.07;1.92;;;;;;;23.03;37.56;102462.53;16138469;19;130086;-54
2022/08/07 10:16:00;;;;;;;5.00;1.80;;;;;;;23.03;38.00;102451.38;16142531;19;129903;-50
2022/08/07 10:21:55;;;;;;;7.15;1.90;;;;;;;23.09;37.81;102446.78;16142585;19;129122;-55
2022/08/07 10:28:28;;;;;;;6.00;1.90;;;;;;;23.10;38.25;102447.63;16138936;19;130129;-55
2022/08/07 10:34:13;;;;;;;3.95;1.75;;;;;;;23.14;38.62;102426.53;16130133;19;128954;-55
2022/08/07 10:40:18;;;;;;;4.38;1.63;;;;;;;23.14;38.21;102432.13;16131882;19;130652;-56
2022/08/07 10:45:48;;;;;;;9.70;1.73;;;;;;;23.15;38.33;102429.06;16127556;19;129879;-51
2022/08/07 10:52:00;;;;;;;26.75;2.40;;;;;;;23.17;38.39;102414.88;16129566;19;130246;-54
2022/08/07 10:58:03;;;;;;;32.13;2.88;;;;;;;23.19;38.46;102410.75;16127069;19;130148;-59
2022/08/07 11:03:35;;;;;;;7.93;1.60;;;;;;;23.29;38.14;102412.94;16128994;19;129797;-50
2022/08/07 11:09:19;;;;;;;16.73;1.88;;;;;;;23.39;38.03;102400.28;16134280;19;129227;-55
2022/08/07 11:15:06;;;;;;;33.95;2.78;;;;;;;23.45;38.25;102399.34;16139659;19;130666;-51
2022/08/07 11:20:48;;;;;;;15.65;1.60;;;;;;;23.51;37.92;102388.03;16137066;19;129914;-50
2022/08/07 11:26:20;;;;;;;14.43;2.33;;;;;;;23.52;37.74;102391.66;16137970;19;129129;-52
2022/08/07 11:31:50;;;;;;;25.90;2.25;;;;;;;23.53;37.89;102382.19;16136234;19;129927;-53
2022/08/07 11:37:35;;;;;;;34.05;2.70;;;;;;;23.57;37.80;102369.44;16135988;19;129294;-53
2022/08/07 11:43:26;;;;;;;18.30;2.05;;;;;;;23.62;37.43;102364.00;16135644;19;130171;-54
2022/08/07 11:49:28;;;;;;;17.00;1.98;;;;;;;23.65;36.99;102360.72;16131522;19;128932;-50
2022/08/07 11:55:38;;;;;;;33.63;2.47;;;;;;;23.70;36.70;102361.91;16129759;19;129490;-57
2022/08/07 12:01:38;;;;;;;25.98;2.30;;;;;;;23.44;33.75;102361.31;16135599;19;132313;-56
2022/08/07 12:07:33;;;;;;;19.38;2.20;;;;;;;23.23;32.78;102355.28;16132043;19;129693;-56
2022/08/07 12:13:17;;;;;;;7.70;2.03;;;;;;;23.19;33.48;102338.16;16134293;19;129699;-56
2022/08/07 12:19:12;;;;;;;;;;;;;;;23.18;33.69;102343.97;16150132;19;130581;-57
2022/08/07 12:25:59;;;;;;;4.75;1.60;;;;;;;23.25;33.09;102338.28;16144406;19;130394;-54
2022/08/07 12:31:17;;;;;;;2.83;1.48;;;;;;;23.24;32.78;102337.44;16141592;19;130751;-57
2022/08/07 12:36:45;;;;;;;5.50;1.58;;;;;;;23.27;33.21;102331.34;16146409;19;129545;-57
2022/08/07 12:42:11;;;;;;;4.97;1.50;;;;;;;23.30;32.54;102335.59;16149090;19;129184;-55
2022/08/07 12:47:54;;;;;;;3.00;1.42;;;;;;;23.35;32.06;102313.38;16146295;19;129776;-56
2022/08/07 12:53:16;;;;;;;4.15;1.25;;;;;;;23.36;32.85;102317.88;16145069;19;129434;-56
2022/08/07 12:58:44;;;;;;;3.20;1.30;;;;;;;23.37;32.57;102315.94;16147613;19;129717;-50
2022/08/07 13:04:42;;;;;;;3.47;1.42;;;;;;;23.36;32.06;102306.69;16146165;19;129925;-54
2022/08/07 13:10:48;;;;;;;4.63;1.25;;;;;;;23.35;32.47;102311.44;16141218;19;129437;-56
2022/08/07 13:16:36;;;;;;;4.82;1.10;;;;;;;23.33;31.68;102302.44;16144276;19;129664;-55
2022/08/07 13:22:00;;;;;;;4.95;1.10;;;;;;;23.35;32.31;102303.06;16138927;19;129557;-55
2022/08/07 13:27:47;;;;;;;9.27;1.55;;;;;;;23.37;31.66;102291.63;16143591;19;129675;-53
2022/08/07 13:33:39;;;;;;;3.38;1.30;;;;;;;23.40;31.37;102293.09;16143808;19;130226;-52
2022/08/07 13:39:33;;;;;;;4.57;1.30;;;;;;;23.41;31.84;102281.69;16144783;19;129261;-55
2022/08/07 13:45:19;;;;;;;2.78;1.30;;;;;;;23.42;31.69;102279.72;16143793;19;129775;-56
2022/08/07 13:51:02;;;;;;;4.18;1.13;;;;;;;23.44;31.27;102281.19;16136899;19;129218;-55
2022/08/07 13:56:45;;;;;;;3.83;1.20;;;;;;;23.45;31.63;102280.06;16140626;19;129034;-57
2022/08/07 14:02:23;;;;;;;2.10;1.30;;;;;;;23.47;31.30;102265.88;16141963;19;129577;-55
2022/08/07 14:07:55;;;;;;;2.80;1.20;;;;;;;23.47;31.11;102263.09;16141037;19;128804;-56
2022/08/07 14:13:30;;;;;;;2.15;1.20;;;;;;;23.49;31.39;102255.31;16141622;19;129441;-56
2022/08/07 14:18:56;;;;;;;6.22;1.25;;;;;;;23.47;31.53;102254.72;16135993;19;130203;-54
2022/08/07 14:24:25;;;;;;;2.73;1.00;;;;;;;23.48;31.35;102259.19;16138394;19;129394;-56
2022/08/07 14:29:53;;;;;;;4.70;1.30;;;;;;;23.51;31.48;102248.38;16136801;19;129436;-54
2022/08/07 14:35:36;;;;;;;4.60;1.23;;;;;;;23.54;31.33;102252.59;16183227;19;129541;-58
2022/08/07 14:41:10;;;;;;;;;;;;;;;23.55;31.60;102245.94;16173722;19;132365;-56
2022/08/07 14:46:56;;;;;;;4.88;1.00;;;;;;;23.60;31.68;102234.91;16167297;19;129288;-56
2022/08/07 14:52:38;;;;;;;4.73;1.00;;;;;;;23.61;31.50;102230.16;16182311;19;129608;-58
2022/08/07 14:58:03;;;;;;;3.72;1.08;;;;;;;23.65;31.22;102232.19;16153562;19;129173;-59
2022/08/07 15:03:27;;;;;;;7.33;1.13;;;;;;;23.73;31.20;102224.53;16154153;19;129910;-57
2022/08/07 15:09:13;;;;;;;3.75;0.95;;;;;;;23.72;31.32;102231.22;16134910;19;129598;-59
2022/08/07 15:15:04;;;;;;;1.90;1.08;;;;;;;23.69;31.11;102231.69;16135344;19;129149;-57
2022/08/07 15:20:32;;;;;;;11.15;1.17;;;;;;;23.68;31.41;102224.41;16135058;19;129612;-57
2022/08/07 15:26:15;;;;;;;;;;;;;;;23.62;31.44;102221.53;16136918;19;129540;-59
2022/08/07 15:32:01;;;;;;;5.43;0.90;;;;;;;23.66;31.41;102222.72;16129028;19;129960;-58
2022/08/07 15:37:31;;;;;;;6.97;0.95;;;;;;;23.69;31.37;102215.81;16137946;19;130138;-57
2022/08/07 15:43:21;;;;;;;3.22;0.95;;;;;;;23.67;31.34;102215.19;16137702;19;129631;-60
2022/08/07 15:49:06;;;;;;;2.50;0.70;;;;;;;23.64;31.28;102196.97;16134884;19;131730;-59
2022/08/07 15:54:50;;;;;;;4.70;1.00;;;;;;;23.62;31.11;102195.53;16141763;19;129709;-58
2022/08/07 16:00:12;;;;;;;5.87;1.10;;;;;;;23.62;31.38;102198.31;16147501;19;129015;-58
2022/08/07 16:05:54;;;;;;;4.93;1.20;;;;;;;23.62;31.42;102192.75;16146697;19;129624;-59
2022/08/07 16:11:34;;;;;;;1.92;0.90;;;;;;;23.62;31.46;102199.19;16141443;19;129563;-58
2022/08/07 16:17:26;;;;;;;2.93;0.77;;;;;;;23.61;31.78;102191.91;16145784;19;128948;-58
2022/08/07 16:23:30;;;;;;;2.72;0.85;;;;;;;23.61;31.38;102191.91;16145775;19;129445;-57
2022/08/07 16:29:28;;;;;;;1.98;0.77;;;;;;;23.61;31.75;102197.50;16142393;19;129644;-57
2022/08/07 16:35:39;;;;;;;3.63;0.80;;;;;;;23.58;31.22;102197.97;16144453;19;132189;-58
2022/08/07 16:41:20;;;;;;;1.70;0.90;;;;;;;23.57;31.16;102193.47;16144573;19;128994;-58
2022/08/07 16:47:20;;;;;;;1.30;0.98;;;;;;;23.58;31.15;102197.97;16145135;19;129338;-58
2022/08/07 16:53:51;;;;;;;3.95;0.75;;;;;;;23.55;30.72;102195.66;15981605;19;3068419;-57
2022/08/07 16:59:47;;;;;;;2.53;0.67;;;;;;;23.53;31.37;102189.47;16146488;19;128825;-58
2022/08/07 17:05:15;;;;;;;1.20;0.57;;;;;;;23.55;31.01;102192.03;16143196;19;130049;-57
2022/08/07 17:11:05;;;;;;;2.22;0.75;;;;;;;23.56;30.54;102188.13;16142645;19;130308;-56
2022/08/07 17:16:50;;;;;;;4.88;0.85;;;;;;;23.54;30.81;102202.34;16147447;19;129031;-57
2022/08/07 17:22:32;;;;;;;1.88;0.70;;;;;;;23.51;30.81;102194.44;16147243;19;129604;-58
2022/08/07 17:28:08;;;;;;;1.85;0.70;;;;;;;23.50;31.23;102189.97;16143773;19;129777;-58
2022/08/07 17:33:35;;;;;;;1.65;1.00;;;;;;;23.46;30.91;102194.34;16141425;19;129348;-58
2022/08/07 17:39:25;;;;;;;7.18;1.40;;;;;;;23.42;30.92;102195.94;16144400;19;131721;-56
2022/08/07 17:45:16;;;;;;;5.43;1.30;;;;;;;23.42;31.05;102204.31;16142207;19;129174;-59
2022/08/07 17:50:52;;;;;;;4.85;1.65;;;;;;;23.26;29.65;102197.56;16138552;19;130139;-58
2022/08/07 17:56:22;;;;;;;6.57;1.30;;;;;;;23.15;30.22;102202.09;16143630;19;129517;-60
2022/08/07 18:02:00;;;;;;;7.93;1.20;;;;;;;23.22;29.97;102207.53;16140041;19;129057;-59
2022/08/07 18:07:36;;;;;;;5.30;1.38;;;;;;;23.23;29.93;102215.69;16143420;19;129380;-59
2022/08/07 18:13:31;;;;;;;11.63;1.42;;;;;;;23.23;30.89;102212.88;16140232;19;129258;-59
2022/08/07 18:19:13;;;;;;;5.43;1.38;;;;;;;23.22;30.72;102218.69;16142487;19;129328;-60
2022/08/07 18:25:04;;;;;;;4.00;1.30;;;;;;;23.22;31.20;102227.94;16142433;19;129778;-60
2022/08/07 18:30:57;;;;;;;3.58;1.15;;;;;;;23.25;31.13;102238.63;16134163;19;131626;-59
2022/08/07 18:36:37;;;;;;;3.83;1.40;;;;;;;23.26;31.51;102242.25;16140619;19;129426;-60
2022/08/07 18:42:15;;;;;;;5.47;1.20;;;;;;;23.22;31.93;102247.47;16140692;19;129848;-60
2022/08/07 18:47:55;;;;;;;5.20;1.77;;;;;;;23.21;31.98;102251.38;16140889;19;132194;-59
2022/08/07 18:53:56;;;;;;;4.45;1.40;;;;;;;23.16;32.28;102251.25;16137434;19;130592;-60
2022/08/07 18:59:48;;;;;;;2.73;1.43;;;;;;;23.14;32.58;102259.03;16134609;19;129645;-56
2022/08/07 19:05:35;;;;;;;4.65;1.33;;;;;;;23.15;32.80;102269.09;16139175;19;129059;-58
2022/08/07 19:11:25;;;;;;;5.93;1.70;;;;;;;23.15;33.01;102272.75;16135374;19;129544;-60
2022/08/07 19:17:02;;;;;;;8.50;1.85;;;;;;;23.16;33.07;102273.56;16136929;19;129788;-57
2022/08/07 19:22:50;;;;;;;8.60;2.08;;;;;;;23.19;33.01;102273.97;16138427;19;128921;-56
2022/08/07 19:28:20;;;;;;;5.85;1.27;;;;;;;23.17;33.16;102287.31;16136365;19;130954;-60
2022/08/07 19:34:03;;;;;;;3.67;1.25;;;;;;;23.17;32.94;102289.22;16133979;19;128951;-53
2022/08/07 19:39:30;;;;;;;6.78;1.67;;;;;;;23.17;33.54;102303.19;16135625;19;130295;-60
2022/08/07 19:45:17;;;;;;;3.85;1.73;;;;;;;23.17;33.45;102311.56;16135242;19;130028;-59
2022/08/07 19:51:02;;;;;;;4.70;1.40;;;;;;;23.16;33.48;102321.03;16132474;19;129169;-59
2022/08/07 19:56:47;;;;;;;5.32;1.50;;;;;;;23.13;33.49;102325.16;16136958;19;129783;-49
2022/08/07 20:02:41;;;;;;;3.17;1.30;;;;;;;23.15;33.39;102322.13;16135588;19;129685;-60
2022/08/07 20:08:21;;;;;;;7.72;1.50;;;;;;;23.14;33.88;102321.28;16134892;19;130114;-53
2022/08/07 20:13:53;;;;;;;8.02;1.40;;;;;;;23.18;34.06;102327.22;16134687;19;130234;-58
2022/08/07 20:19:20;;;;;;;4.40;1.30;;;;;;;23.13;33.89;102327.97;16129185;19;129393;-60
2022/08/07 20:24:47;;;;;;;6.22;1.38;;;;;;;23.10;33.75;102330.41;16136296;19;129611;-56
2022/08/07 20:30:10;;;;;;;11.90;1.50;;;;;;;23.10;33.93;102324.81;16133315;19;129434;-59
2022/08/07 20:35:48;;;;;;;3.97;1.08;;;;;;;23.13;34.20;102327.97;16138947;19;129543;-59
2022/08/07 20:41:28;;;;;;;3.40;1.13;;;;;;;23.15;34.36;102327.72;16149130;19;131422;-59
2022/08/07 20:47:04;;;;;;;5.35;1.20;;;;;;;23.14;34.14;102332.47;16148772;19;130423;-58
2022/08/07 20:52:32;;;;;;;4.03;1.50;;;;;;;23.14;34.32;102337.22;16143824;19;128989;-59
2022/08/07 20:58:15;;;;;;;2.97;1.48;;;;;;;23.11;34.57;102337.69;16147462;19;130185;-59
2022/08/07 21:03:51;;;;;;;;;;;;;;;23.05;34.51;102345.91;16145093;19;130127;-59
2022/08/07 21:09:36;;;;;;;4.10;1.45;;;;;;;23.08;34.81;102338.16;16147226;19;129674;-59
2022/08/07 21:15:18;;;;;;;4.05;1.05;;;;;;;23.04;34.99;102344.22;16143833;19;130065;-59
2022/08/07 21:21:02;;;;;;;10.27;1.60;;;;;;;23.04;34.88;102341.44;16145014;19;129966;-59
2022/08/07 21:27:04;;;;;;;2.42;1.10;;;;;;;23.03;34.93;102342.53;16145610;19;129539;-59
2022/08/07 21:33:11;;;;;;;1.88;0.85;;;;;;;23.03;34.96;102333.31;16139947;19;129587;-59
2022/08/07 21:38:54;;;;;;;4.75;1.30;;;;;;;23.02;35.35;102340.81;16144299;19;129625;-59
2022/08/07 21:44:52;;;;;;;2.95;1.15;;;;;;;23.02;34.99;102343.59;16141400;19;129900;-59
2022/08/07 21:50:24;;;;;;;1.97;1.40;;;;;;;22.99;35.25;102341.31;16139643;19;129884;-59
2022/08/07 21:56:10;;;;;;;2.33;1.02;;;;;;;22.98;35.44;102339.63;16137995;19;129147;-59
2022/08/07 22:01:57;;;;;;;4.72;1.42;;;;;;;22.97;35.87;102342.63;16143808;19;129421;-59
2022/08/07 22:07:38;;;;;;;3.00;1.10;;;;;;;22.98;35.25;102344.34;16143206;19;130728;-59
2022/08/07 22:13:21;;;;;;;2.03;1.17;;;;;;;22.96;36.04;102347.38;16139107;19;129632;-59
2022/08/07 22:19:34;;;;;;;2.72;1.02;;;;;;;22.98;35.58;102353.56;16143388;19;129606;-59
2022/08/07 22:25:09;;;;;;;5.70;1.00;;;;;;;22.97;35.65;102357.47;16135577;19;130421;-59
2022/08/07 22:30:48;;;;;;;2.40;0.90;;;;;;;22.95;35.86;102365.22;16138763;19;129681;-59
2022/08/07 22:36:48;;;;;;;2.28;1.10;;;;;;;22.97;35.97;102370.53;16141996;19;130011;-59
2022/08/07 22:42:19;;;;;;;1.52;0.90;;;;;;;22.95;35.91;102372.75;16134063;19;129564;-59
2022/08/07 22:48:34;;;;;;;1.90;1.10;;;;;;;22.94;36.07;102387.78;16137975;19;129205;-59
2022/08/07 22:54:50;;;;;;;1.95;0.90;;;;;;;22.94;35.96;102379.41;16135522;19;129883;-58
2022/08/07 23:00:26;;;;;;;3.10;0.93;;;;;;;22.93;36.28;102380.50;16134676;19;129902;-59
2022/08/07 23:06:11;;;;;;;2.78;1.15;;;;;;;22.93;35.92;102391.66;16138256;19;129272;-59
2022/08/07 23:12:05;;;;;;;2.28;1.25;;;;;;;22.92;36.26;102384.38;16133622;19;130345;-58
2022/08/07 23:17:50;;;;;;;1.92;0.90;;;;;;;22.93;36.14;102384.13;16135657;19;130001;-58
2022/08/07 23:23:40;;;;;;;2.90;1.20;;;;;;;22.91;36.33;102382.69;16139506;19;129505;-59
2022/08/07 23:29:34;;;;;;;1.55;1.02;;;;;;;22.89;36.28;102380.13;16138686;19;129614;-59
2022/08/07 23:35:25;;;;;;;1.08;0.90;;;;;;;22.88;36.70;102372.84;16136708;19;132315;-59
2022/08/07 23:41:18;;;;;;;1.92;1.10;;;;;;;22.87;36.56;102368.34;16130213;19;130631;-59
2022/08/07 23:47:07;;;;;;;1.83;1.00;;;;;;;22.87;36.62;102371.13;16135343;19;129165;-59
2022/08/07 23:52:40;;;;;;;3.03;1.10;;;;;;;22.85;36.62;102371.34;16131694;19;129458;-59
2022/08/07 23:58:49;;;;;;;1.70;1.02;;;;;;;22.86;36.78;102369.44;16135967;19;129759;-58
